createdAt,value
2022-08-19T00:01:45.234Z,76.08
2022-08-19T00:04:28.518Z,75.95
2022-08-19T00:07:00.354Z,75.48
2022-08-19T00:09:32.310Z,75.69
2022-08-19T00:12:04.094Z,75.95
2022-08-19T00:14:35.744Z,76.21
2022-08-19T00:17:08.979Z,76.40
2022-08-19T00:19:41.523Z,76.19
2022-08-19T00:22:12.873Z,76.21
2022-08-19T00:24:50.878Z,76.28
2022-08-19T00:27:25.532Z,76.62
2022-08-19T00:29:59.776Z,77.14
2022-08-19T00:32:31.321Z,77.43
2022-08-19T00:35:04.682Z,77.09
2022-08-19T00:37:36.343Z,77.08
2022-08-19T00:40:08.598Z,77.18
2022-08-19T00:42:40.528Z,76.49
2022-08-19T00:45:18.185Z,76.45
2022-08-19T00:47:49.765Z,77.27
2022-08-19T00:50:22.039Z,77.41
2022-08-19T00:52:53.688Z,77.11
2022-08-19T00:55:28.950Z,77.13
2022-08-19T00:58:09.995Z,77.26
2022-08-19T01:00:41.837Z,77.20
2022-08-19T01:03:16.444Z,77.01
2022-08-19T01:05:52.817Z,77.54
2022-08-19T01:08:24.372Z,77.28
2022-08-19T01:11:00.360Z,77.57
2022-08-19T01:13:48.885Z,77.31
2022-08-19T01:16:24.744Z,77.49
2022-08-19T01:18:57.543Z,77.57
2022-08-19T01:21:41.354Z,77.31
2022-08-19T01:24:12.742Z,77.71
2022-08-19T01:26:45.286Z,77.70
2022-08-19T01:29:18.066Z,77.29
2022-08-19T01:31:50.082Z,77.37
2022-08-19T01:34:21.392Z,77.74
2022-08-19T01:36:52.723Z,77.83
2022-08-19T01:39:25.908Z,77.68
2022-08-19T01:41:57.348Z,77.72
2022-08-19T01:44:28.703Z,77.75
2022-08-19T01:47:00.221Z,78.12
2022-08-19T01:49:31.612Z,78.30
2022-08-19T01:52:03.870Z,78.37
2022-08-19T01:54:35.330Z,78.35
2022-08-19T01:57:12.170Z,78.22
2022-08-19T01:59:45.906Z,78.73
2022-08-19T02:02:17.508Z,78.45
2022-08-19T02:04:48.867Z,78.60
2022-08-19T02:07:22.546Z,78.13
2022-08-19T02:09:53.834Z,78.06
2022-08-19T02:12:25.287Z,78.20
2022-08-19T02:14:56.669Z,78.58
2022-08-19T02:17:29.817Z,78.71
2022-08-19T02:20:01.334Z,78.82
2022-08-19T02:22:33.718Z,78.80
2022-08-19T02:25:05.816Z,78.95
2022-08-19T02:27:37.258Z,78.75
2022-08-19T02:30:14.223Z,78.61
2022-08-19T02:32:45.941Z,78.89
2022-08-19T02:35:17.694Z,79.04
2022-08-19T02:38:07.518Z,79.49
2022-08-19T02:40:38.854Z,78.85
2022-08-19T02:43:10.208Z,78.79
2022-08-19T02:45:41.762Z,79.32
2022-08-19T02:48:21.294Z,79.22
2022-08-19T02:50:56.281Z,79.44
2022-08-19T02:53:29.158Z,79.28
2022-08-19T02:56:00.597Z,79.14
2022-08-19T02:58:31.918Z,79.03
2022-08-19T03:01:03.620Z,79.32
2022-08-19T03:03:35.006Z,79.05
2022-08-19T03:06:08.977Z,79.11
2022-08-19T03:08:45.558Z,79.32
2022-08-19T03:11:27.057Z,79.40
2022-08-19T03:14:00.920Z,79.32
2022-08-19T03:16:34.832Z,78.97
2022-08-19T03:19:06.129Z,79.25
2022-08-19T03:21:37.458Z,79.24
2022-08-19T03:24:09.500Z,79.71
2022-08-19T03:26:46.499Z,79.48
2022-08-19T03:29:30.901Z,79.43
2022-08-19T03:32:05.426Z,79.44
2022-08-19T03:34:39.010Z,79.48
2022-08-19T03:37:15.629Z,79.83
2022-08-19T03:39:46.947Z,79.48
2022-08-19T03:42:38.913Z,79.80
2022-08-19T03:45:11.167Z,79.63
2022-08-19T03:47:42.592Z,79.67
2022-08-19T03:50:13.917Z,79.67
2022-08-19T03:52:51.310Z,80.36
2022-08-19T03:55:22.733Z,80.25
2022-08-19T03:57:58.605Z,80.19
2022-08-19T04:00:30.536Z,80.23
2022-08-19T04:03:01.924Z,79.95
2022-08-19T04:05:33.358Z,80.21
2022-08-19T04:08:09.600Z,80.20
2022-08-19T04:10:43.359Z,80.59
2022-08-19T04:13:19.003Z,80.15
2022-08-19T04:15:50.671Z,80.34
2022-08-19T04:18:21.966Z,80.42
2022-08-19T04:20:53.276Z,80.57
2022-08-19T04:23:24.810Z,80.21
2022-08-19T04:25:56.992Z,80.11
2022-08-19T04:28:29.726Z,80.24
2022-08-19T04:31:01.041Z,80.33
2022-08-19T04:33:32.333Z,80.40
2022-08-19T04:36:03.942Z,80.07
2022-08-19T04:38:35.222Z,80.42
2022-08-19T04:41:25.262Z,80.66
2022-08-19T04:43:58.413Z,80.59
2022-08-19T04:46:40.053Z,80.60
2022-08-19T04:49:23.763Z,79.86
2022-08-19T04:51:55.690Z,80.42
2022-08-19T04:54:37.386Z,80.18
2022-08-19T04:57:10.725Z,80.56
2022-08-19T04:59:42.368Z,80.65
2022-08-19T05:02:13.701Z,80.55
2022-08-19T05:04:45.022Z,79.94
2022-08-19T05:07:16.334Z,80.69
2022-08-19T05:09:58.647Z,80.54
2022-08-19T05:12:30.396Z,80.66
2022-08-19T05:15:04.135Z,80.50
2022-08-19T05:17:38.658Z,80.44
2022-08-19T05:20:29.504Z,80.82
2022-08-19T05:23:00.876Z,80.68
2022-08-19T05:25:32.172Z,80.84
2022-08-19T05:28:03.667Z,80.52
2022-08-19T05:30:46.866Z,80.09
2022-08-19T05:33:19.425Z,80.70
2022-08-19T05:35:51.511Z,80.60
2022-08-19T05:38:22.942Z,80.10
2022-08-19T05:40:54.296Z,80.10
2022-08-19T05:43:26.423Z,79.78
2022-08-19T05:45:57.744Z,80.29
2022-08-19T05:48:29.166Z,80.07
2022-08-19T05:51:07.004Z,79.49
2022-08-19T05:53:38.785Z,79.71
2022-08-19T05:56:16.911Z,79.55
2022-08-19T05:58:48.342Z,79.85
2022-08-19T06:01:19.930Z,80.77
2022-08-19T06:03:51.762Z,79.72
2022-08-19T06:06:23.114Z,79.94
2022-08-19T06:08:54.424Z,80.43
2022-08-19T06:11:36.061Z,80.44
2022-08-19T06:14:16.483Z,80.27
2022-08-19T06:16:48.191Z,80.54
2022-08-19T06:19:21.881Z,80.69
2022-08-19T06:21:54.129Z,80.53
2022-08-19T06:24:27.947Z,80.43
2022-08-19T06:27:01.606Z,80.12
2022-08-19T06:29:33.459Z,79.99
2022-08-19T06:32:05.395Z,79.96
2022-08-19T06:34:36.821Z,80.09
2022-08-19T06:37:08.714Z,80.57
2022-08-19T06:39:42.693Z,80.66
2022-08-19T06:42:17.190Z,80.64
2022-08-19T06:44:49.939Z,80.52
2022-08-19T06:47:25.244Z,80.32
2022-08-19T06:50:05.384Z,80.31
2022-08-19T06:52:38.258Z,80.03
2022-08-19T06:55:10.127Z,80.11
2022-08-19T06:57:41.449Z,80.44
2022-08-19T07:00:14.556Z,80.12
2022-08-19T07:02:50.592Z,80.02
2022-08-19T07:05:27.057Z,80.78
2022-08-19T07:08:01.704Z,80.48
2022-08-19T07:10:37.393Z,81.24
2022-08-19T07:13:14.154Z,81.66
2022-08-19T07:15:47.275Z,81.20
2022-08-19T07:18:21.219Z,80.94
2022-08-19T07:21:06.631Z,81.03
2022-08-19T07:23:40.910Z,81.08
2022-08-19T07:26:17.257Z,80.96
2022-08-19T07:28:51.371Z,81.63
2022-08-19T07:31:26.798Z,81.21
2022-08-19T07:34:04.241Z,81.53
2022-08-19T07:36:39.901Z,81.39
2022-08-19T07:39:30.183Z,81.08
2022-08-19T07:42:07.825Z,81.39
2022-08-19T07:47:48.197Z,81.15
2022-08-19T07:50:12.371Z,81.52
2022-08-19T07:52:45.212Z,81.47
2022-08-19T07:55:41.967Z,81.51
2022-08-19T07:58:17.215Z,81.72
2022-08-19T08:00:51.230Z,81.79
2022-08-19T08:03:47.031Z,81.33
2022-08-19T08:06:36.901Z,81.76
2022-08-19T08:09:11.725Z,81.76
2022-08-19T08:11:50.421Z,81.33
2022-08-19T08:14:35.127Z,81.36
2022-08-19T08:17:10.718Z,81.22
2022-08-19T08:19:43.440Z,81.11
2022-08-19T08:22:36.869Z,81.22
2022-08-19T08:25:13.047Z,81.32
2022-08-19T08:27:46.907Z,81.08
2022-08-19T08:30:22.701Z,80.77
2022-08-19T08:32:54.309Z,80.33
2022-08-19T08:35:25.973Z,80.67
2022-08-19T08:37:57.780Z,80.13
2022-08-19T08:40:50.700Z,80.09
2022-08-19T08:43:32.367Z,80.19
2022-08-19T08:46:08.670Z,80.06
2022-08-19T08:48:55.272Z,79.46
2022-08-19T08:51:35.166Z,80.00
2022-08-19T08:54:09.896Z,79.69
2022-08-19T08:56:44.122Z,79.85
2022-08-19T08:59:27.409Z,79.68
2022-08-19T09:01:59.454Z,79.08
2022-08-19T09:04:30.939Z,79.05
2022-08-19T09:07:34.745Z,78.86
2022-08-19T09:10:29.383Z,78.59
2022-08-19T09:13:24.614Z,78.87
2022-08-19T09:16:02.329Z,79.08
2022-08-19T09:18:54.041Z,78.89
2022-08-19T09:21:33.148Z,78.65
2022-08-19T09:24:06.410Z,78.54
2022-08-19T09:26:48.664Z,78.20
2022-08-19T09:29:24.226Z,78.59
2022-08-19T09:31:55.708Z,78.65
2022-08-19T09:34:27.047Z,78.56
2022-08-19T09:37:00.957Z,78.48
2022-08-19T09:39:35.923Z,78.10
2022-08-19T09:42:16.635Z,77.48
2022-08-19T09:45:01.538Z,76.29
2022-08-19T09:47:38.950Z,75.86
2022-08-19T09:50:16.610Z,75.82
2022-08-19T09:52:54.157Z,75.70
2022-08-19T09:55:31.904Z,75.58
2022-08-19T09:58:04.409Z,75.52
2022-08-19T10:00:38.573Z,75.09
2022-08-19T10:03:09.899Z,74.32
2022-08-19T10:05:49.412Z,73.83
2022-08-19T10:08:26.632Z,73.60
2022-08-19T10:10:58.933Z,74.04
2022-08-19T10:13:32.813Z,73.23
2022-08-19T10:16:07.619Z,72.52
2022-08-19T10:18:44.554Z,72.62
2022-08-19T10:21:28.436Z,71.88
2022-08-19T10:24:06.239Z,71.27
2022-08-19T10:26:42.870Z,71.16
2022-08-19T10:29:32.064Z,71.07
2022-08-19T10:32:09.477Z,70.64
2022-08-19T10:34:48.408Z,71.44
2022-08-19T10:37:29.167Z,70.50
2022-08-19T10:40:09.028Z,71.14
2022-08-19T10:42:40.433Z,70.29
2022-08-19T10:45:12.008Z,69.47
2022-08-19T10:47:43.372Z,68.91
2022-08-19T10:50:33.265Z,68.50
2022-08-19T10:53:09.671Z,68.92
2022-08-19T10:55:59.746Z,68.54
2022-08-19T10:58:31.164Z,68.95
2022-08-19T11:01:02.570Z,68.12
2022-08-19T11:03:34.021Z,68.23
2022-08-19T11:06:08.069Z,68.27
2022-08-19T11:08:39.843Z,68.47
2022-08-19T11:11:11.525Z,67.53
2022-08-19T11:13:45.033Z,67.56
2022-08-19T11:16:26.978Z,66.39
2022-08-19T11:18:59.870Z,66.47
2022-08-19T11:21:34.202Z,66.90
2022-08-19T11:24:12.207Z,66.17
2022-08-19T11:26:45.121Z,66.60
2022-08-19T11:29:18.369Z,66.07
2022-08-19T11:31:50.706Z,65.76
2022-08-19T11:34:26.098Z,65.59
2022-08-19T11:37:00.333Z,65.60
2022-08-19T11:39:32.866Z,64.57
2022-08-19T11:42:25.988Z,63.77
2022-08-19T11:44:57.393Z,63.42
2022-08-19T11:47:29.118Z,64.07
2022-08-19T11:50:00.509Z,63.93
2022-08-19T11:52:31.873Z,64.08
2022-08-19T11:55:03.462Z,64.30
2022-08-19T11:57:34.846Z,64.10
2022-08-19T12:00:08.030Z,63.66
2022-08-19T12:02:39.397Z,63.67
2022-08-19T12:05:12.981Z,63.09
2022-08-19T12:07:44.732Z,62.30
2022-08-19T12:10:17.523Z,62.22
2022-08-19T12:12:58.630Z,62.02
2022-08-19T12:15:37.125Z,62.12
2022-08-19T12:18:09.939Z,61.49
2022-08-19T12:20:43.618Z,60.86
2022-08-19T12:23:15.153Z,60.76
2022-08-19T12:25:52.632Z,60.46
2022-08-19T12:28:25.505Z,60.35
2022-08-19T12:30:57.634Z,60.28
2022-08-19T12:33:29.468Z,60.48
2022-08-19T12:36:04.553Z,60.62
2022-08-19T12:38:37.044Z,60.39
2022-08-19T12:41:11.947Z,61.11
2022-08-19T12:43:43.872Z,60.57
2022-08-19T12:46:15.205Z,60.64
2022-08-19T12:48:48.953Z,60.70
2022-08-19T12:51:26.193Z,60.49
2022-08-19T12:53:57.562Z,60.79
2022-08-19T12:56:28.900Z,60.83
2022-08-19T12:59:03.950Z,60.58
2022-08-19T13:01:35.322Z,60.08
2022-08-19T13:04:06.658Z,59.92
2022-08-19T13:06:38.338Z,59.58
2022-08-19T13:09:10.048Z,59.84
2022-08-19T13:11:41.457Z,59.59
2022-08-19T13:14:12.766Z,59.47
2022-08-19T13:16:44.119Z,59.29
2022-08-19T13:19:15.454Z,58.88
2022-08-19T13:21:50.488Z,59.03
2022-08-19T13:24:22.417Z,59.46
2022-08-19T13:27:00.214Z,59.09
2022-08-19T13:29:50.060Z,59.01
2022-08-19T13:32:40.164Z,58.83
2022-08-19T13:35:16.709Z,59.77
2022-08-19T13:37:48.506Z,59.89
2022-08-19T13:40:24.858Z,59.70
2022-08-19T13:42:56.370Z,59.78
2022-08-19T13:45:29.855Z,59.55
2022-08-19T13:48:05.830Z,59.31
2022-08-19T13:50:42.949Z,60.04
2022-08-19T13:53:15.106Z,59.60
2022-08-19T13:55:46.492Z,59.85
2022-08-19T13:58:18.084Z,59.88
2022-08-19T14:00:50.639Z,59.08
2022-08-19T14:03:22.076Z,58.64
2022-08-19T14:05:53.386Z,57.76
2022-08-19T14:08:24.968Z,57.13
2022-08-19T14:10:56.297Z,57.42
2022-08-19T14:13:27.652Z,58.09
2022-08-19T14:15:59.032Z,57.76
2022-08-19T14:18:31.024Z,58.18
2022-08-19T14:21:03.878Z,57.53
2022-08-19T14:23:36.885Z,56.17
2022-08-19T14:26:12.691Z,56.06
2022-08-19T14:28:45.295Z,55.80
2022-08-19T14:31:19.803Z,56.00
2022-08-19T14:33:51.692Z,56.11
2022-08-19T14:36:22.998Z,56.38
2022-08-19T14:38:54.308Z,56.13
2022-08-19T14:41:25.697Z,55.51
2022-08-19T14:43:58.066Z,55.59
2022-08-19T14:46:30.050Z,55.76
2022-08-19T14:49:01.658Z,55.26
2022-08-19T14:51:40.854Z,55.33
2022-08-19T14:54:12.654Z,54.95
2022-08-19T14:56:44.303Z,55.09
2022-08-19T14:59:15.697Z,55.15
2022-08-19T15:01:47.094Z,55.46
2022-08-19T15:04:18.435Z,55.61
2022-08-19T15:06:50.210Z,55.31
2022-08-19T15:09:21.524Z,55.61
2022-08-19T15:11:52.904Z,55.67
2022-08-19T15:14:24.198Z,55.59
2022-08-19T15:16:55.507Z,55.84
2022-08-19T15:19:26.831Z,55.66
2022-08-19T15:21:58.738Z,56.10
2022-08-19T15:24:30.038Z,55.65
2022-08-19T15:27:01.467Z,55.59
2022-08-19T15:29:33.204Z,56.22
2022-08-19T15:32:06.911Z,56.34
2022-08-19T15:34:38.542Z,56.31
2022-08-19T15:37:09.886Z,56.56
2022-08-19T15:39:41.204Z,56.07
2022-08-19T15:42:12.554Z,56.05
2022-08-19T15:44:49.942Z,56.60
2022-08-19T15:47:22.035Z,55.95
2022-08-19T15:49:56.652Z,56.83
2022-08-19T15:52:30.230Z,56.91
2022-08-19T15:55:06.775Z,57.46
2022-08-19T15:57:56.850Z,57.12
2022-08-19T16:00:46.948Z,57.51
2022-08-19T16:03:42.856Z,57.90
2022-08-19T16:06:27.626Z,57.71
2022-08-19T16:09:04.810Z,57.79
2022-08-19T16:11:39.419Z,57.64
2022-08-19T16:14:11.119Z,58.01
2022-08-19T16:16:46.792Z,57.35
2022-08-19T16:19:19.874Z,58.07
2022-08-19T16:21:55.596Z,57.84
2022-08-19T16:24:28.411Z,57.64
2022-08-19T16:27:01.401Z,58.64
2022-08-19T16:29:39.289Z,58.19
2022-08-19T16:32:11.836Z,58.01
2022-08-19T16:34:44.032Z,58.30
2022-08-19T16:37:17.816Z,58.24
2022-08-19T16:39:49.475Z,58.51
2022-08-19T16:42:20.920Z,59.03
2022-08-19T16:44:52.490Z,58.69
2022-08-19T16:47:23.883Z,58.77
2022-08-19T16:49:55.620Z,59.18
2022-08-19T16:52:27.196Z,58.87
2022-08-19T16:54:59.080Z,59.34
2022-08-19T16:57:32.132Z,59.60
2022-08-19T17:00:09.685Z,59.27
2022-08-19T17:02:40.979Z,59.24
2022-08-19T17:05:12.414Z,59.82
2022-08-19T17:07:43.810Z,59.56
2022-08-19T17:10:15.257Z,59.68
2022-08-19T17:12:46.566Z,60.08
2022-08-19T17:15:18.033Z,60.87
2022-08-19T17:17:49.360Z,60.64
2022-08-19T17:20:20.781Z,60.95
2022-08-19T17:22:52.086Z,60.54
2022-08-19T17:25:27.560Z,61.28
2022-08-19T17:28:10.225Z,61.02
2022-08-19T17:30:41.573Z,61.68
2022-08-19T17:33:13.549Z,61.80
2022-08-19T17:35:45.006Z,61.90
2022-08-19T17:38:23.102Z,61.57
2022-08-19T17:41:01.118Z,61.92
2022-08-19T17:43:36.525Z,61.90
2022-08-19T17:46:13.210Z,62.08
2022-08-19T17:48:52.871Z,62.48
2022-08-19T17:51:33.144Z,62.16
2022-08-19T17:54:06.346Z,62.39
2022-08-19T17:56:38.066Z,63.12
2022-08-19T17:59:13.840Z,63.03
2022-08-19T18:01:53.156Z,63.45
2022-08-19T18:04:30.534Z,63.59
2022-08-19T18:07:08.112Z,63.92
2022-08-19T18:12:24.545Z,64.36
2022-08-19T18:14:57.855Z,64.67
2022-08-19T18:17:30.161Z,64.84
2022-08-19T18:20:01.811Z,64.79
2022-08-19T18:22:42.646Z,64.86
2022-08-19T18:25:19.074Z,65.07
2022-08-19T18:27:53.124Z,65.69
2022-08-19T18:30:26.389Z,65.58
2022-08-19T18:32:59.698Z,65.98
2022-08-19T18:35:32.393Z,66.10
2022-08-19T18:38:23.719Z,66.48
2022-08-19T18:41:13.837Z,66.68
2022-08-19T18:44:04.333Z,66.98
2022-08-19T18:46:54.630Z,67.31
2022-08-19T18:49:31.910Z,67.43
2022-08-19T18:52:03.574Z,67.70
2022-08-19T18:54:35.596Z,68.13
2022-08-19T18:57:06.919Z,68.05
2022-08-19T18:59:38.617Z,68.39
2022-08-19T19:02:11.780Z,68.74
2022-08-19T19:04:43.499Z,68.68
2022-08-19T19:07:15.232Z,69.25
2022-08-19T19:09:52.602Z,68.89
2022-08-19T19:12:29.003Z,69.27
2022-08-19T19:15:01.706Z,69.28
2022-08-19T19:17:33.009Z,69.77
2022-08-19T19:20:05.266Z,69.94
2022-08-19T19:22:36.604Z,69.99
2022-08-19T19:25:08.734Z,70.38
2022-08-19T19:27:40.417Z,70.60
2022-08-19T19:30:13.646Z,70.77
2022-08-19T19:32:45.175Z,71.16
2022-08-19T19:35:16.985Z,71.19
2022-08-19T19:37:52.506Z,71.36
2022-08-19T19:40:23.970Z,71.83
2022-08-19T19:42:55.594Z,71.70
2022-08-19T19:45:27.970Z,72.00
2022-08-19T19:48:00.554Z,72.39
2022-08-19T19:50:32.159Z,72.29
2022-08-19T19:53:03.477Z,72.76
2022-08-19T19:55:34.786Z,72.34
2022-08-19T19:58:06.901Z,72.80
2022-08-19T20:00:38.325Z,73.06
2022-08-19T20:03:10.383Z,73.61
2022-08-19T20:05:41.683Z,73.63
2022-08-19T20:08:31.380Z,73.25
2022-08-19T20:11:05.709Z,74.07
2022-08-19T20:13:40.471Z,73.97
2022-08-19T20:16:11.829Z,74.08
2022-08-19T20:18:43.648Z,74.41
2022-08-19T20:21:14.946Z,74.62
2022-08-19T20:24:08.964Z,74.61
2022-08-19T20:26:37.814Z,75.13
2022-08-19T20:29:13.702Z,75.04
2022-08-19T20:32:00.572Z,75.53
2022-08-19T20:34:33.671Z,75.16
2022-08-19T20:37:05.281Z,75.65
2022-08-19T20:39:37.249Z,76.10
2022-08-19T20:42:08.612Z,75.73
2022-08-19T20:44:39.912Z,76.29
2022-08-19T20:47:11.280Z,76.24
2022-08-19T20:49:42.586Z,76.84
2022-08-19T20:52:13.913Z,76.69
2022-08-19T20:54:45.228Z,77.18
2022-08-19T20:57:16.542Z,77.04
2022-08-19T20:59:47.841Z,77.21
2022-08-19T21:02:20.952Z,77.74
2022-08-19T21:04:52.352Z,77.56
2022-08-19T21:07:38.808Z,77.95
2022-08-19T21:10:11.167Z,77.69
2022-08-19T21:12:44.257Z,77.67
2022-08-19T21:15:18.238Z,77.84
2022-08-19T21:17:51.347Z,78.24
2022-08-19T21:20:22.934Z,78.26
2022-08-19T21:22:57.859Z,78.20
2022-08-19T21:25:30.239Z,77.93
2022-08-19T21:28:01.807Z,78.03
2022-08-19T21:30:34.770Z,78.12
2022-08-19T21:33:07.275Z,78.08
2022-08-19T21:35:39.626Z,78.78
2022-08-19T21:38:11.122Z,78.60
2022-08-19T21:40:42.462Z,78.49
2022-08-19T21:43:14.645Z,78.79
2022-08-19T21:45:47.444Z,78.21
2022-08-19T21:48:19.010Z,78.13
2022-08-19T21:50:50.833Z,78.54
2022-08-19T21:53:22.956Z,78.80
2022-08-19T21:55:54.549Z,78.54
2022-08-19T21:58:28.125Z,78.55
2022-08-19T22:01:05.901Z,78.51
2022-08-19T22:03:38.551Z,78.55
2022-08-19T22:06:09.949Z,78.63
2022-08-19T22:08:42.115Z,78.06
2022-08-19T22:11:13.430Z,78.52
2022-08-19T22:13:44.750Z,78.76
2022-08-19T22:16:17.973Z,79.18
2022-08-19T22:18:50.698Z,79.24
2022-08-19T22:21:40.069Z,78.82
2022-08-19T22:24:12.018Z,78.80
2022-08-19T22:26:43.332Z,78.94
2022-08-19T22:29:17.252Z,79.15
2022-08-19T22:31:54.300Z,79.42
2022-08-19T22:34:29.791Z,79.23
2022-08-19T22:37:01.117Z,79.40
2022-08-19T22:39:32.457Z,79.36
2022-08-19T22:42:03.849Z,79.42
2022-08-19T22:44:35.209Z,79.48
2022-08-19T22:47:06.600Z,79.59
2022-08-19T22:49:37.945Z,79.43
2022-08-19T22:52:17.202Z,79.46
2022-08-19T22:54:51.906Z,79.20
2022-08-19T22:57:23.638Z,79.39
2022-08-19T22:59:58.908Z,79.01
2022-08-19T23:02:38.330Z,79.48
2022-08-19T23:05:10.988Z,79.45
2022-08-19T23:07:42.327Z,79.84
2022-08-19T23:10:27.485Z,79.15
2022-08-19T23:13:00.197Z,79.14
2022-08-19T23:15:32.476Z,78.94
2022-08-19T23:18:04.704Z,79.07
2022-08-19T23:20:38.613Z,78.99
2022-08-19T23:23:18.676Z,79.44
2022-08-19T23:25:52.200Z,79.47
2022-08-19T23:28:41.990Z,79.24
2022-08-19T23:31:13.382Z,79.25
2022-08-19T23:33:51.387Z,79.35
2022-08-19T23:36:23.591Z,78.67
2022-08-19T23:38:55.293Z,78.90
2022-08-19T23:41:29.800Z,79.10
2022-08-19T23:44:01.124Z,79.38
2022-08-19T23:46:32.497Z,79.45
2022-08-19T23:49:21.973Z,79.46
2022-08-19T23:51:54.610Z,79.74
2022-08-19T23:54:27.451Z,79.39
2022-08-19T23:57:14.984Z,79.09
2022-08-19T23:59:46.364Z,79.33
